Time;durP1;ratioP1;P1;durP2;ratioP2;P2;SDS_P1;SDS_P2;PMS_P1;PMS_P2;Temp;Humidity;BMP_temperature;BMP_pressure;BME280_temperature;BME280_humidity;BME280_pressure;Samples;Min_cycle;Max_cycle;Signal;HPM_P1;HPM_P2
2021/10/20 00:02:01;;;;;;;;;;;16.00;99.90;;;;;;8336868;28;20070;-71
2021/10/20 00:06:03;;;;;;;;;;;16.00;99.90;;;;;;8340308;28;19967;-71
2021/10/20 00:10:05;;;;;;;;;;;16.00;99.90;;;;;;8332181;28;19921;-71
2021/10/20 00:14:07;;;;;;;;;;;16.00;99.90;;;;;;8333854;28;19921;-71
2021/10/20 00:18:08;;;;;;;;;;;16.10;99.90;;;;;;8346501;28;19947;-71
2021/10/20 00:22:10;;;;;;;;;;;16.10;99.90;;;;;;8318314;28;19921;-71
2021/10/20 00:26:12;;;;;;;;;;;16.10;99.90;;;;;;8328094;28;19928;-72
2021/10/20 00:30:15;;;;;;;;;;;16.10;99.90;;;;;;8334757;28;19921;-71
2021/10/20 00:34:17;;;;;;;;;;;16.00;99.90;;;;;;8334449;28;19928;-71
2021/10/20 00:38:18;;;;;;;;;;;16.00;99.90;;;;;;8323742;28;19936;-71
2021/10/20 00:42:23;;;;;;;;;;;16.00;99.90;;;;;;8329554;28;20319;-71
2021/10/20 00:46:28;;;;;;;;;;;16.00;99.90;;;;;;8335356;28;19921;-73
2021/10/20 00:50:30;;;;;;;;;;;16.00;99.90;;;;;;8332986;28;19932;-73
2021/10/20 00:54:32;;;;;;;;;;;16.00;99.90;;;;;;8330644;28;19928;-73
2021/10/20 00:58:33;;;;;;;;;;;16.00;99.90;;;;;;8332032;28;19983;-73
2021/10/20 01:02:37;;;;;;;;;;;16.00;99.90;;;;;;8327482;28;19928;-73
2021/10/20 01:06:39;;;;;;;;;;;15.90;99.90;;;;;;8326879;28;19921;-73
2021/10/20 01:10:41;;;;;;;;;;;15.90;99.90;;;;;;8337374;28;19921;-73
2021/10/20 01:14:43;;;;;;;;;;;15.80;99.90;;;;;;8342232;28;19920;-73
2021/10/20 01:18:44;;;;;;;;;;;15.80;99.90;;;;;;8330792;28;19928;-73
2021/10/20 01:22:46;;;;;;;;;;;15.80;99.90;;;;;;8324766;28;19920;-73
2021/10/20 01:26:49;;;;;;;;;;;15.80;99.90;;;;;;8325847;28;19925;-73
2021/10/20 01:30:51;;;;;;;;;;;15.80;99.90;;;;;;8335627;28;19921;-73
2021/10/20 01:34:53;;;;;;;;;;;15.80;99.90;;;;;;8334890;28;20477;-73
2021/10/20 01:38:55;;;;;;;;;;;15.80;99.90;;;;;;8328441;28;19925;-73
2021/10/20 01:42:56;;;;;;;;;;;15.80;99.90;;;;;;8331542;28;19932;-73
2021/10/20 01:46:58;;;;;;;;;;;15.80;99.90;;;;;;8331448;28;20541;-73
2021/10/20 01:51:00;;;;;;;;;;;15.80;99.90;;;;;;8325991;28;19921;-73
2021/10/20 01:55:03;;;;;;;;;;;15.80;99.90;;;;;;8320399;28;19921;-73
2021/10/20 01:59:05;;;;;;;;;;;15.80;99.90;;;;;;8323476;28;19930;-73
2021/10/20 02:03:06;;;;;;;;;;;15.80;99.90;;;;;;8329800;28;20399;-73
2021/10/20 02:07:08;;;;;;;;;;;15.80;99.90;;;;;;8327913;28;19928;-72
2021/10/20 02:11:10;;;;;;;;;;;15.80;99.90;;;;;;8330914;28;19936;-72
2021/10/20 02:15:12;;;;;;;;;;;15.80;99.90;;;;;;8334284;28;19948;-73
2021/10/20 02:19:13;;;;;;;;;;;15.80;99.90;;;;;;8323426;28;19940;-73
2021/10/20 02:23:16;;;;;;;;;;;15.80;99.90;;;;;;8319876;28;19921;-72
2021/10/20 02:27:17;;;;;;;;;;;15.80;99.90;;;;;;8331192;28;19922;-73
2021/10/20 02:31:19;;;;;;;;;;;15.80;99.90;;;;;;8329093;28;19936;-73
2021/10/20 02:35:21;;;;;;;;;;;15.80;99.90;;;;;;8323022;28;19921;-73
2021/10/20 02:39:23;;;;;;;;;;;15.80;99.90;;;;;;8341133;28;19921;-73
2021/10/20 02:43:24;;;;;;;;;;;15.80;99.90;;;;;;8326505;28;19925;-73
2021/10/20 02:47:26;;;;;;;;;;;15.70;99.90;;;;;;8334353;28;19921;-73
2021/10/20 02:51:30;;;;;;;;;;;15.70;99.90;;;;;;8334657;28;20248;-72
2021/10/20 02:55:31;;;;;;;;;;;15.70;99.90;;;;;;8324095;28;20002;-72
2021/10/20 02:59:33;;;;;;;;;;;15.70;99.90;;;;;;8331292;28;19920;-73
2021/10/20 03:03:35;;;;;;;;;;;15.70;99.90;;;;;;8319611;28;19932;-73
2021/10/20 03:07:36;;;;;;;;;;;15.70;99.90;;;;;;8321411;28;24072;-73
2021/10/20 03:11:38;;;;;;;;;;;15.70;99.90;;;;;;8328983;28;19983;-73
2021/10/20 03:15:39;;;;;;;;;;;15.70;99.90;;;;;;8330876;28;20353;-73
2021/10/20 03:19:44;;;;;;;;;;;15.70;99.90;;;;;;8345341;28;19927;-73
2021/10/20 03:23:45;;;;;;;;;;;15.70;99.90;;;;;;8327650;28;19925;-72
2021/10/20 03:27:49;;;;;;;;;;;15.70;99.90;;;;;;8326227;28;19965;-73
2021/10/20 03:31:50;;;;;;;;;;;15.60;99.90;;;;;;8359480;28;19998;-73
2021/10/20 03:35:52;;;;;;;;;;;15.70;99.90;;;;;;8330371;28;19983;-73
2021/10/20 03:39:54;;;;;;;;;;;15.70;99.90;;;;;;8339988;28;19921;-73
2021/10/20 03:43:55;;;;;;;;;;;15.70;99.90;;;;;;8339410;28;19925;-73
2021/10/20 03:47:57;;;;;;;;;;;15.70;99.90;;;;;;8323227;28;19928;-73
2021/10/20 03:51:59;;;;;;;;;;;15.70;99.90;;;;;;8323432;28;19921;-73
2021/10/20 03:56:00;;;;;;;;;;;15.70;99.90;;;;;;8331593;28;20020;-72
2021/10/20 04:00:07;;;;;;;;;;;15.70;99.90;;;;;;8342395;28;19928;-72
2021/10/20 04:04:08;;;;;;;;;;;15.80;99.90;;;;;;8331963;28;19925;-73
2021/10/20 04:08:10;;;;;;;;;;;15.80;99.90;;;;;;8335335;28;19974;-73
2021/10/20 04:12:12;;;;;;;;;;;15.80;99.90;;;;;;8336359;28;19921;-73
2021/10/20 04:16:13;;;;;;;;;;;15.80;99.90;;;;;;8327394;28;19944;-73
2021/10/20 04:20:16;;;;;;;;;;;15.80;99.90;;;;;;8323965;28;19925;-72
2021/10/20 04:24:17;;;;;;;;;;;15.80;99.90;;;;;;8328324;28;20359;-73
2021/10/20 04:28:19;;;;;;;;;;;15.80;99.90;;;;;;8335771;28;20369;-73
2021/10/20 04:32:21;;;;;;;;;;;15.90;99.90;;;;;;8342971;28;19929;-73
2021/10/20 04:36:22;;;;;;;;;;;15.90;99.90;;;;;;8324280;28;19943;-73
2021/10/20 04:40:24;;;;;;;;;;;15.90;99.90;;;;;;8325381;28;20364;-72
2021/10/20 04:44:26;;;;;;;;;;;15.90;99.90;;;;;;8316500;28;20016;-72
2021/10/20 04:48:27;;;;;;;;;;;16.00;99.90;;;;;;8322533;28;19921;-73
2021/10/20 04:57:33;;;;;;;;;;;16.00;99.90;;;;;;8315164;28;19917;-73
2021/10/20 05:01:35;;;;;;;;;;;16.00;99.90;;;;;;8319435;28;19932;-72
2021/10/20 05:05:36;;;;;;;;;;;16.10;99.90;;;;;;8325920;28;25098;-73
2021/10/20 05:09:38;;;;;;;;;;;16.10;99.90;;;;;;8355098;28;19921;-73
2021/10/20 05:13:40;;;;;;;;;;;16.10;99.90;;;;;;8327500;28;19929;-73
2021/10/20 05:17:43;;;;;;;;;;;16.10;99.90;;;;;;8327851;28;19921;-73
2021/10/20 05:21:45;;;;;;;;;;;16.10;99.90;;;;;;8312703;28;19922;-73
2021/10/20 05:25:47;;;;;;;;;;;16.10;99.90;;;;;;8323892;28;19925;-73
2021/10/20 05:29:48;;;;;;;;;;;16.10;99.90;;;;;;8317079;28;19925;-73
2021/10/20 05:33:50;;;;;;;;;;;16.10;99.90;;;;;;8320142;28;19929;-72
2021/10/20 05:37:53;;;;;;;;;;;16.10;99.90;;;;;;8335821;28;20463;-73
2021/10/20 05:41:55;;;;;;;;;;;16.10;99.90;;;;;;8328158;28;19932;-73
2021/10/20 05:45:56;;;;;;;;;;;16.10;99.90;;;;;;8327865;28;19920;-72
2021/10/20 05:49:58;;;;;;;;;;;16.10;99.90;;;;;;8321113;28;20352;-73
2021/10/20 05:54:00;;;;;;;;;;;16.20;99.90;;;;;;8348965;28;19921;-73
2021/10/20 05:58:03;;;;;;;;;;;16.20;99.90;;;;;;8319032;28;19925;-73
2021/10/20 06:02:06;;;;;;;;;;;16.20;99.90;;;;;;8319329;28;19929;-73
2021/10/20 06:06:08;;;;;;;;;;;16.20;99.90;;;;;;8318314;28;25106;-73
2021/10/20 06:10:11;;;;;;;;;;;16.20;99.90;;;;;;8313948;28;19928;-73
2021/10/20 06:14:12;;;;;;;;;;;16.20;99.90;;;;;;8323626;28;19944;-73
2021/10/20 06:18:14;;;;;;;;;;;16.20;99.90;;;;;;8319631;28;20211;-73
2021/10/20 06:22:16;;;;;;;;;;;16.20;99.90;;;;;;8349819;28;19975;-73
2021/10/20 06:26:18;;;;;;;;;;;16.20;99.90;;;;;;8312987;28;20381;-73
2021/10/20 06:30:19;;;;;;;;;;;16.20;99.90;;;;;;8315309;28;19975;-72
2021/10/20 06:34:21;;;;;;;;;;;16.20;99.90;;;;;;8317999;28;19925;-73
2021/10/20 06:38:23;;;;;;;;;;;16.20;99.90;;;;;;8316677;28;19925;-73
2021/10/20 06:42:25;;;;;;;;;;;16.20;99.90;;;;;;8327103;28;19921;-72
2021/10/20 06:46:45;;;;;;;;;;;16.20;99.90;;;;;;8325104;28;20262;-73
2021/10/20 06:50:46;;;;;;;;;;;16.10;99.90;;;;;;8326737;28;19925;-73
2021/10/20 06:54:48;;;;;;;;;;;16.10;99.90;;;;;;8339412;28;19932;-72
2021/10/20 06:58:49;;;;;;;;;;;16.20;99.90;;;;;;8324547;28;19928;-72
2021/10/20 07:02:51;;;;;;;;;;;16.20;99.90;;;;;;8315167;28;20005;-73
2021/10/20 07:06:55;;;;;;;;;;;16.20;99.90;;;;;;8332704;28;20433;-72
2021/10/20 07:10:56;;;;;;;;;;;16.20;99.90;;;;;;8324601;28;19944;-73
2021/10/20 07:14:59;;;;;;;;;;;16.10;99.90;;;;;;8325389;28;19921;-73
2021/10/20 07:19:05;;;;;;;;;;;16.10;99.90;;;;;;8312806;28;19925;-73
2021/10/20 07:23:07;;;;;;;;;;;15.90;99.90;;;;;;8311177;28;19975;-73
2021/10/20 07:27:09;;;;;;;;;;;15.80;99.90;;;;;;8313263;28;19948;-73
2021/10/20 07:31:10;;;;;;;;;;;15.70;99.90;;;;;;8313485;28;20431;-73
2021/10/20 07:35:14;;;;;;;;;;;15.60;99.90;;;;;;8319006;28;20387;-73
2021/10/20 07:39:15;;;;;;;;;;;15.60;99.90;;;;;;8317965;28;19925;-73
2021/10/20 07:43:17;;;;;;;;;;;15.50;99.90;;;;;;8307022;28;19922;-73
2021/10/20 07:47:20;;;;;;;;;;;15.50;99.90;;;;;;8312782;28;20012;-73
2021/10/20 07:51:22;;;;;;;;;;;15.50;99.90;;;;;;8314739;28;20391;-73
2021/10/20 07:55:24;;;;;;;;;;;15.50;99.90;;;;;;8320040;28;19921;-73
2021/10/20 07:59:26;;;;;;;;;;;15.50;99.90;;;;;;8324746;28;20320;-73
2021/10/20 08:03:28;;;;;;;;;;;15.40;99.90;;;;;;8319014;28;19929;-73
2021/10/20 08:07:30;;;;;;;;;;;15.50;99.90;;;;;;8356794;28;19968;-72
2021/10/20 08:11:32;;;;;;;;;;;15.50;99.90;;;;;;8323824;28;19979;-73
2021/10/20 08:15:34;;;;;;;;;;;15.60;99.90;;;;;;8321501;28;20478;-73
2021/10/20 08:19:36;;;;;;;;;;;15.60;99.90;;;;;;8336673;28;20361;-73
2021/10/20 08:23:38;;;;;;;;;;;15.70;99.90;;;;;;8320300;28;19975;-73
2021/10/20 08:27:40;;;;;;;;;;;15.70;99.90;;;;;;8329460;28;19921;-72
2021/10/20 08:31:42;;;;;;;;;;;15.80;99.90;;;;;;8326147;28;25064;-72
2021/10/20 08:35:44;;;;;;;;;;;15.90;99.90;;;;;;8322851;28;19928;-73
2021/10/20 08:39:46;;;;;;;;;;;15.90;99.90;;;;;;8321568;28;19929;-72
2021/10/20 08:43:47;;;;;;;;;;;16.00;99.90;;;;;;8319786;28;19944;-73
2021/10/20 08:48:14;;;;;;;;;;;16.10;99.90;;;;;;8315066;28;19980;-73
2021/10/20 08:52:21;;;;;;;;;;;16.20;99.90;;;;;;8314966;28;19921;-73
2021/10/20 08:56:22;;;;;;;;;;;16.30;99.90;;;;;;8319447;28;19949;-73
2021/10/20 09:00:24;;;;;;;;;;;16.40;99.90;;;;;;8330544;28;19921;-73
2021/10/20 09:04:29;;;;;;;;;;;16.40;99.90;;;;;;8332292;28;19929;-73
2021/10/20 09:08:40;;;;;;;;;;;16.40;99.90;;;;;;8324132;28;19921;-72
2021/10/20 09:12:42;;;;;;;;;;;16.40;99.90;;;;;;8317109;28;19936;-73
2021/10/20 09:16:44;;;;;;;;;;;16.40;99.90;;;;;;8314497;28;20274;-73
2021/10/20 09:20:46;;;;;;;;;;;16.50;99.90;;;;;;8317970;28;19925;-73
2021/10/20 09:24:48;;;;;;;;;;;16.60;99.90;;;;;;8314659;28;20304;-73
2021/10/20 09:28:50;;;;;;;;;;;16.60;99.90;;;;;;8346019;28;20300;-73
2021/10/20 09:33:06;;;;;;;;;;;16.70;99.90;;;;;;8323736;28;19932;-73
2021/10/20 09:37:07;;;;;;;;;;;16.70;99.90;;;;;;8325796;28;19921;-73
2021/10/20 09:41:09;;;;;;;;;;;16.70;99.90;;;;;;8324721;28;19928;-73
2021/10/20 09:45:12;;;;;;;;;;;16.80;99.90;;;;;;8323965;28;19921;-73
2021/10/20 09:49:18;;;;;;;;;;;16.90;99.90;;;;;;8324347;28;20340;-73
2021/10/20 09:53:20;;;;;;;;;;;16.90;99.90;;;;;;8325517;28;19921;-73
2021/10/20 09:57:29;;;;;;;;;;;17.00;99.90;;;;;;8325305;28;19979;-73
2021/10/20 10:01:31;;;;;;;;;;;17.00;99.90;;;;;;8322480;28;20296;-73
2021/10/20 10:05:32;;;;;;;;;;;17.00;99.90;;;;;;8323484;28;20320;-73
2021/10/20 10:09:34;;;;;;;;;;;17.00;99.90;;;;;;8317932;28;19925;-73
2021/10/20 10:13:41;;;;;;;;;;;17.00;99.90;;;;;;8357880;28;19928;-73
2021/10/20 10:17:44;;;;;;;;;;;17.00;99.90;;;;;;8323055;28;19924;-73
2021/10/20 10:21:46;;;;;;;;;;;17.10;99.90;;;;;;8316961;28;19922;-73
2021/10/20 10:25:58;;;;;;;;;;;17.10;99.90;;;;;;8330595;28;20008;-73
2021/10/20 10:30:16;;;;;;;;;;;17.10;99.90;;;;;;8323008;28;19921;-73
2021/10/20 10:34:29;;;;;;;;;;;17.20;99.90;;;;;;8330817;28;19979;-73
2021/10/20 10:38:50;;;;;;;;;;;17.30;99.90;;;;;;8327476;28;19957;-73
2021/10/20 10:42:52;;;;;;;;;;;17.30;99.90;;;;;;8332038;28;19929;-73
2021/10/20 10:46:55;;;;;;;;;;;17.30;99.90;;;;;;8329942;28;20313;-73
2021/10/20 10:50:57;;;;;;;;;;;17.30;99.90;;;;;;8329559;28;20070;-73
2021/10/20 10:55:18;;;;;;;;;;;17.40;99.90;;;;;;8314622;28;19932;-73
2021/10/20 10:59:21;;;;;;;;;;;17.40;99.90;;;;;;8331753;28;19921;-72
2021/10/20 11:03:24;;;;;;;;;;;17.40;99.90;;;;;;8326252;28;20387;-73
2021/10/20 11:07:26;;;;;;;;;;;17.40;99.90;;;;;;8331511;28;20323;-73
2021/10/20 11:11:28;;;;;;;;;;;17.50;99.90;;;;;;8355949;28;19979;-73
2021/10/20 11:15:36;;;;;;;;;;;17.50;99.90;;;;;;8324672;28;19928;-73
2021/10/20 11:19:38;;;;;;;;;;;17.50;99.90;;;;;;8322932;28;19920;-73
2021/10/20 11:23:40;;;;;;;;;;;17.50;99.90;;;;;;8317166;28;20266;-73
2021/10/20 11:28:07;;;;;;;;;;;17.50;99.90;;;;;;8330003;28;19920;-73
2021/10/20 11:32:13;;;;;;;;;;;17.50;99.90;;;;;;8324050;28;19936;-73
2021/10/20 11:36:20;;;;;;;;;;;17.50;99.90;;;;;;8325324;28;19928;-73
2021/10/20 11:40:23;;;;;;;;;;;17.50;99.90;;;;;;8343000;28;19921;-73
2021/10/20 11:44:29;;;;;;;;;;;17.50;99.90;;;;;;8328328;28;19929;-73
2021/10/20 11:48:31;;;;;;;;;;;17.50;99.90;;;;;;8329668;28;19921;-73
2021/10/20 11:52:35;;;;;;;;;;;17.40;99.90;;;;;;8323857;28;20265;-73
2021/10/20 11:56:37;;;;;;;;;;;17.40;99.90;;;;;;8324025;28;19947;-73
2021/10/20 12:00:38;;;;;;;;;;;17.40;99.90;;;;;;8328635;28;19983;-73
2021/10/20 12:04:41;;;;;;;;;;;17.40;99.90;;;;;;8323819;28;19979;-73
2021/10/20 12:08:45;;;;;;;;;;;17.40;99.90;;;;;;8328682;28;20376;-73
2021/10/20 12:12:47;;;;;;;;;;;17.30;99.90;;;;;;8326739;28;19948;-73
2021/10/20 12:17:06;;;;;;;;;;;17.20;99.90;;;;;;8335707;28;20030;-73
2021/10/20 12:21:10;;;;;;;;;;;17.20;99.90;;;;;;8316999;28;20005;-73
2021/10/20 12:25:12;;;;;;;;;;;17.20;99.90;;;;;;8317531;28;19921;-73
2021/10/20 12:29:14;;;;;;;;;;;17.30;99.90;;;;;;8315898;28;19921;-73
2021/10/20 12:33:37;;;;;;;;;;;17.30;99.90;;;;;;8309849;28;19921;-73
2021/10/20 12:37:47;;;;;;;;;;;17.40;99.90;;;;;;8323364;28;19937;-73
2021/10/20 12:41:48;;;;;;;;;;;17.50;99.90;;;;;;8317916;28;19944;-73
2021/10/20 12:45:50;;;;;;;;;;;17.60;99.90;;;;;;8317748;28;20308;-73
2021/10/20 12:49:52;;;;;;;;;;;17.70;99.90;;;;;;8322062;28;20324;-73
2021/10/20 12:53:58;;;;;;;;;;;17.70;99.90;;;;;;8327162;28;20341;-73
2021/10/20 12:58:01;;;;;;;;;;;17.70;99.90;;;;;;8324725;28;19983;-73
2021/10/20 13:02:05;;;;;;;;;;;17.60;99.90;;;;;;8324161;28;20384;-73
2021/10/20 13:06:09;;;;;;;;;;;17.60;99.90;;;;;;8327462;28;19921;-73
2021/10/20 13:10:12;;;;;;;;;;;17.60;99.90;;;;;;8322279;28;19948;-73
2021/10/20 13:14:14;;;;;;;;;;;17.50;99.90;;;;;;8351890;28;19971;-73
2021/10/20 13:18:16;;;;;;;;;;;17.60;99.90;;;;;;8321824;28;19920;-73
2021/10/20 13:22:18;;;;;;;;;;;17.60;99.90;;;;;;8352879;28;19922;-73
2021/10/20 13:26:21;;;;;;;;;;;17.70;99.90;;;;;;8320445;28;19928;-73
2021/10/20 13:30:23;;;;;;;;;;;17.90;99.90;;;;;;8330769;28;19925;-73
2021/10/20 13:34:29;;;;;;;;;;;17.90;99.90;;;;;;8328365;28;19948;-73
2021/10/20 13:38:31;;;;;;;;;;;18.00;99.90;;;;;;8317492;28;20296;-73
2021/10/20 13:42:34;;;;;;;;;;;18.00;99.90;;;;;;8319570;28;22425;-73
2021/10/20 13:46:42;;;;;;;;;;;18.00;99.90;;;;;;8334731;28;19929;-73
2021/10/20 13:50:43;;;;;;;;;;;18.00;99.90;;;;;;8319230;28;19925;-73
2021/10/20 13:54:45;;;;;;;;;;;17.90;99.90;;;;;;8322842;28;19991;-73
2021/10/20 13:58:47;;;;;;;;;;;17.80;99.90;;;;;;8327282;28;19929;-73
2021/10/20 14:02:49;;;;;;;;;;;17.80;99.90;;;;;;8331746;28;19925;-73
2021/10/20 14:06:55;;;;;;;;;;;17.80;99.90;;;;;;8326610;28;20031;-73
2021/10/20 14:10:58;;;;;;;;;;;17.90;99.90;;;;;;8322185;28;19929;-73
2021/10/20 14:14:59;;;;;;;;;;;17.90;99.90;;;;;;8312760;28;19925;-73
2021/10/20 14:19:01;;;;;;;;;;;17.90;99.90;;;;;;8322572;28;19948;-73
2021/10/20 14:23:03;;;;;;;;;;;17.90;99.90;;;;;;8317915;28;20007;-73
2021/10/20 14:27:05;;;;;;;;;;;17.80;99.90;;;;;;8339332;28;19927;-73
2021/10/20 14:31:06;;;;;;;;;;;17.80;99.90;;;;;;8322766;28;19921;-73
2021/10/20 14:35:08;;;;;;;;;;;17.80;99.90;;;;;;8322139;28;19937;-73
2021/10/20 14:39:14;;;;;;;;;;;17.80;99.90;;;;;;8324723;28;19940;-73
2021/10/20 14:43:16;;;;;;;;;;;17.70;99.90;;;;;;8321196;28;19968;-73
2021/10/20 14:47:18;;;;;;;;;;;17.70;99.90;;;;;;8324480;28;19925;-72
2021/10/20 14:51:19;;;;;;;;;;;17.60;99.90;;;;;;8328589;28;19921;-73
2021/10/20 14:55:21;;;;;;;;;;;17.60;99.90;;;;;;8325071;28;19921;-73
2021/10/20 14:59:29;;;;;;;;;;;17.60;99.90;;;;;;8328004;28;20423;-73
2021/10/20 15:03:30;;;;;;;;;;;17.50;99.90;;;;;;8327599;28;19921;-73
2021/10/20 15:07:32;;;;;;;;;;;17.50;99.90;;;;;;8323725;28;19976;-73
2021/10/20 15:11:34;;;;;;;;;;;17.50;99.90;;;;;;8342324;28;19925;-73
2021/10/20 15:15:36;;;;;;;;;;;17.50;99.90;;;;;;8329856;28;19928;-73
2021/10/20 15:19:55;;;;;;;;;;;17.50;99.90;;;;;;8332582;28;19924;-73
2021/10/20 15:23:57;;;;;;;;;;;17.50;99.90;;;;;;8331475;28;20014;-73
2021/10/20 15:27:58;;;;;;;;;;;17.50;99.90;;;;;;8326165;28;19925;-73
2021/10/20 15:32:00;;;;;;;;;;;17.50;99.90;;;;;;8333302;28;19967;-74
2021/10/20 15:36:02;;;;;;;;;;;17.50;99.90;;;;;;8331262;28;19921;-73
2021/10/20 15:40:04;;;;;;;;;;;17.60;99.90;;;;;;8317275;28;19929;-73
2021/10/20 15:44:06;;;;;;;;;;;17.60;99.90;;;;;;8359074;28;19925;-73
2021/10/20 15:48:08;;;;;;;;;;;17.60;99.90;;;;;;8353496;28;19925;-72
2021/10/20 15:52:09;;;;;;;;;;;17.70;99.90;;;;;;8325086;28;19945;-73
2021/10/20 15:56:11;;;;;;;;;;;17.60;99.90;;;;;;8321672;28;19940;-73
2021/10/20 16:00:13;;;;;;;;;;;17.40;99.90;;;;;;8330810;28;19925;-73
2021/10/20 16:04:16;;;;;;;;;;;17.40;99.90;;;;;;8319339;28;20312;-73
2021/10/20 16:08:18;;;;;;;;;;;17.30;99.90;;;;;;8325404;28;20381;-73
2021/10/20 16:12:21;;;;;;;;;;;17.20;99.90;;;;;;8307450;28;20270;-73
2021/10/20 16:16:25;;;;;;;;;;;17.10;99.90;;;;;;8294237;28;19929;-73
2021/10/20 16:20:27;;;;;;;;;;;17.00;99.90;;;;;;8292589;28;20300;-73
2021/10/20 16:24:29;;;;;;;;;;;16.90;99.90;;;;;;8291425;28;20189;-73
2021/10/20 16:28:33;;;;;;;;;;;16.90;99.90;;;;;;8291303;28;20318;-73
2021/10/20 16:32:34;;;;;;;;;;;16.80;99.90;;;;;;8294065;28;19929;-73
2021/10/20 16:36:36;;;;;;;;;;;16.80;99.90;;;;;;8307226;28;19929;-73
2021/10/20 16:40:38;;;;;;;;;;;16.70;99.90;;;;;;8293966;28;19986;-73
2021/10/20 16:44:39;;;;;;;;;;;16.70;99.90;;;;;;8294597;28;19929;-73
2021/10/20 16:48:42;;;;;;;;;;;16.70;99.90;;;;;;8293827;28;19928;-73
2021/10/20 16:52:43;;;;;;;;;;;16.60;99.90;;;;;;8291424;28;20276;-73
2021/10/20 16:56:50;;;;;;;;;;;16.40;99.90;;;;;;8292750;28;20376;-73
2021/10/20 17:00:51;;;;;;;;;;;16.00;99.90;;;;;;8308489;28;21057;-73
2021/10/20 17:04:53;;;;;;;;;;;15.60;99.90;;;;;;8290010;28;19929;-73
2021/10/20 17:08:55;;;;;;;;;;;15.30;99.90;;;;;;8295010;28;19937;-73
2021/10/20 17:12:57;;;;;;;;;;;15.10;99.90;;;;;;8292958;28;19933;-73
2021/10/20 17:16:59;;;;;;;;;;;14.90;99.90;;;;;;8291027;28;19983;-73
2021/10/20 17:21:01;;;;;;;;;;;14.80;99.90;;;;;;8293983;28;19925;-73
2021/10/20 17:25:04;;;;;;;;;;;14.70;99.90;;;;;;8312468;28;19926;-73
2021/10/20 17:29:31;;;;;;;;;;;14.70;99.90;;;;;;8292249;28;19929;-73
2021/10/20 17:33:33;;;;;;;;;;;14.60;99.90;;;;;;8301894;28;20377;-73
2021/10/20 17:37:35;;;;;;;;;;;14.60;99.90;;;;;;8306065;28;20285;-73
2021/10/20 17:41:36;;;;;;;;;;;14.50;99.90;;;;;;8289062;28;19929;-72
2021/10/20 17:45:38;;;;;;;;;;;14.50;99.90;;;;;;8306328;28;19952;-73
2021/10/20 17:49:40;;;;;;;;;;;14.60;99.90;;;;;;8287588;28;19921;-73
2021/10/20 17:53:41;;;;;;;;;;;14.60;99.90;;;;;;8288459;28;19929;-73
2021/10/20 17:57:43;;;;;;;;;;;14.60;99.90;;;;;;8290190;28;19921;-72
2021/10/20 18:01:45;;;;;;;;;;;14.60;99.90;;;;;;8306381;28;20472;-73
2021/10/20 18:05:48;;;;;;;;;;;14.50;99.90;;;;;;8290707;28;19999;-73
2021/10/20 18:09:49;;;;;;;;;;;14.50;99.90;;;;;;8316704;28;20032;-73
2021/10/20 18:13:51;;;;;;;;;;;14.50;99.90;;;;;;8308942;28;19995;-73
2021/10/20 18:17:53;;;;;;;;;;;14.40;99.90;;;;;;8297017;28;19921;-72
2021/10/20 18:21:55;;;;;;;;;;;14.40;99.90;;;;;;8289539;28;19932;-72
2021/10/20 18:25:57;;;;;;;;;;;14.40;99.90;;;;;;8292920;28;19949;-72
2021/10/20 18:30:18;;;;;;;;;;;14.40;99.90;;;;;;8291419;28;19998;-72
2021/10/20 18:34:22;;;;;;;;;;;14.50;99.90;;;;;;8287076;28;19980;-73
2021/10/20 18:38:24;;;;;;;;;;;14.50;99.90;;;;;;8291312;28;20336;-72
2021/10/20 18:42:26;;;;;;;;;;;14.60;99.90;;;;;;8303886;28;19948;-72
2021/10/20 18:46:28;;;;;;;;;;;14.70;99.90;;;;;;8299385;28;19921;-73
2021/10/20 18:50:31;;;;;;;;;;;14.70;99.90;;;;;;8308392;28;19921;-72
2021/10/20 18:54:33;;;;;;;;;;;14.70;99.90;;;;;;8314102;28;20046;-72
2021/10/20 18:58:35;;;;;;;;;;;14.70;99.90;;;;;;8295429;28;19929;-73
2021/10/20 19:02:37;;;;;;;;;;;14.70;99.90;;;;;;8299186;28;20360;-72
2021/10/20 19:06:39;;;;;;;;;;;14.80;99.90;;;;;;8293054;28;19925;-73
2021/10/20 19:10:45;;;;;;;;;;;14.80;99.90;;;;;;8308356;28;19936;-72
2021/10/20 19:14:48;;;;;;;;;;;14.70;99.90;;;;;;8313324;28;20284;-72
2021/10/20 19:18:50;;;;;;;;;;;14.70;99.90;;;;;;8325448;28;19984;-73
2021/10/20 19:27:49;;;;;;;;;;;14.70;99.90;;;;;;8292596;28;20473;-72
2021/10/20 19:31:51;;;;;;;;;;;14.70;99.90;;;;;;8299510;28;19943;-72
2021/10/20 19:35:53;;;;;;;;;;;14.70;99.90;;;;;;8306052;28;20020;-73
2021/10/20 19:39:55;;;;;;;;;;;14.70;99.90;;;;;;8312299;28;19968;-72
2021/10/20 19:43:57;;;;;;;;;;;14.70;99.90;;;;;;8306775;28;19925;-73
2021/10/20 19:47:59;;;;;;;;;;;14.70;99.90;;;;;;8306750;28;19928;-73
2021/10/20 19:52:01;;;;;;;;;;;14.70;99.90;;;;;;8307047;28;19922;-73
2021/10/20 19:56:03;;;;;;;;;;;14.60;99.90;;;;;;8309862;28;19925;-73
2021/10/20 20:00:05;;;;;;;;;;;14.60;99.90;;;;;;8308323;28;20241;-72
2021/10/20 20:04:12;;;;;;;;;;;14.50;99.90;;;;;;8308898;28;20374;-73
2021/10/20 20:08:14;;;;;;;;;;;14.50;99.90;;;;;;8309504;28;19944;-72
2021/10/20 20:12:16;;;;;;;;;;;14.40;99.90;;;;;;8317087;28;19940;-73
2021/10/20 20:16:18;;;;;;;;;;;14.40;99.90;;;;;;8325357;28;20376;-73
2021/10/20 20:20:20;;;;;;;;;;;14.40;99.90;;;;;;8321283;28;19975;-73
2021/10/20 20:24:21;;;;;;;;;;;14.40;99.90;;;;;;8309628;28;19970;-72
2021/10/20 20:28:23;;;;;;;;;;;14.30;99.90;;;;;;8304462;28;19929;-73
2021/10/20 20:32:26;;;;;;;;;;;14.30;99.90;;;;;;8307423;28;19921;-72
2021/10/20 20:36:28;;;;;;;;;;;14.30;99.90;;;;;;8305585;28;19940;-73
2021/10/20 20:40:30;;;;;;;;;;;14.30;99.90;;;;;;8308926;28;19933;-73
2021/10/20 20:44:33;;;;;;;;;;;14.30;99.90;;;;;;8310559;28;19940;-72
2021/10/20 20:48:35;;;;;;;;;;;14.40;99.90;;;;;;8306634;28;19928;-73
2021/10/20 20:52:37;;;;;;;;;;;14.50;99.90;;;;;;8320712;28;19929;-72
2021/10/20 20:56:38;;;;;;;;;;;14.50;99.90;;;;;;8310545;28;19970;-73
2021/10/20 21:00:40;;;;;;;;;;;14.60;99.90;;;;;;8309139;28;19928;-73
2021/10/20 21:09:22;;;;;;;;;;;14.70;99.90;;;;;;8324980;28;19926;-72
2021/10/20 21:13:25;;;;;;;;;;;14.70;99.90;;;;;;8345099;28;19928;-73
2021/10/20 21:17:28;;;;;;;;;;;14.60;99.90;;;;;;8333096;28;20559;-73
2021/10/20 21:21:29;;;;;;;;;;;14.60;99.90;;;;;;8322539;28;20321;-73
2021/10/20 21:25:31;;;;;;;;;;;14.50;99.90;;;;;;8331531;28;20272;-73
2021/10/20 21:29:33;;;;;;;;;;;14.50;99.90;;;;;;8327191;28;19975;-73
2021/10/20 21:33:40;;;;;;;;;;;14.40;99.90;;;;;;8321636;28;19921;-73
2021/10/20 21:37:42;;;;;;;;;;;14.40;99.90;;;;;;8332276;28;19921;-73
2021/10/20 21:41:44;;;;;;;;;;;14.30;99.90;;;;;;8330148;28;20277;-73
2021/10/20 21:45:58;;;;;;;;;;;14.30;99.90;;;;;;8348740;28;19936;-73
2021/10/20 21:50:19;;;;;;;;;;;14.30;99.90;;;;;;8331626;28;20376;-73
2021/10/20 21:54:51;;;;;;;;;;;14.30;99.90;;;;;;8326800;28;19928;-73
2021/10/20 21:58:53;;;;;;;;;;;14.30;99.90;;;;;;8342912;28;20293;-73
2021/10/20 22:03:08;;;;;;;;;;;14.30;99.90;;;;;;8333174;28;20356;-73
2021/10/20 22:07:10;;;;;;;;;;;14.30;99.90;;;;;;8331901;28;19921;-73
2021/10/20 22:11:12;;;;;;;;;;;14.30;99.90;;;;;;8325717;28;19928;-73
2021/10/20 22:15:14;;;;;;;;;;;14.30;99.90;;;;;;8354403;28;19979;-73
2021/10/20 22:19:16;;;;;;;;;;;14.30;99.90;;;;;;8325313;28;19921;-73
2021/10/20 22:23:18;;;;;;;;;;;14.20;99.90;;;;;;8312552;28;19925;-73
2021/10/20 22:27:19;;;;;;;;;;;14.20;99.90;;;;;;8315651;28;19925;-73
2021/10/20 22:31:22;;;;;;;;;;;14.20;99.90;;;;;;8321501;28;19928;-73
2021/10/20 22:35:25;;;;;;;;;;;14.20;99.90;;;;;;8326779;28;19921;-73
2021/10/20 22:39:27;;;;;;;;;;;14.10;99.90;;;;;;8350188;28;19928;-73
2021/10/20 22:43:30;;;;;;;;;;;14.10;99.90;;;;;;8317329;28;19924;-73
2021/10/20 22:47:35;;;;;;;;;;;14.10;99.90;;;;;;8324056;28;20280;-73
2021/10/20 22:51:37;;;;;;;;;;;14.10;99.90;;;;;;8328811;28;19965;-73
2021/10/20 22:55:39;;;;;;;;;;;14.10;99.90;;;;;;8353525;28;20411;-73
2021/10/20 22:59:41;;;;;;;;;;;14.10;99.90;;;;;;8332008;28;19947;-73
2021/10/20 23:03:43;;;;;;;;;;;14.10;99.90;;;;;;8327068;28;19921;-73
2021/10/20 23:07:47;;;;;;;;;;;14.10;99.90;;;;;;8330197;28;19921;-73
2021/10/20 23:11:49;;;;;;;;;;;14.10;99.90;;;;;;8331954;28;19925;-73
2021/10/20 23:15:51;;;;;;;;;;;14.10;99.90;;;;;;8323705;28;19932;-73
2021/10/20 23:19:53;;;;;;;;;;;14.10;99.90;;;;;;8329410;28;19921;-73
2021/10/20 23:23:54;;;;;;;;;;;14.00;99.90;;;;;;8321573;28;19929;-73
2021/10/20 23:27:56;;;;;;;;;;;14.10;99.90;;;;;;8328407;28;20443;-73
2021/10/20 23:31:58;;;;;;;;;;;14.10;99.90;;;;;;8334754;28;19924;-74
2021/10/20 23:36:00;;;;;;;;;;;14.10;99.90;;;;;;8339493;28;20412;-74
2021/10/20 23:40:02;;;;;;;;;;;14.10;99.90;;;;;;8349245;28;19968;-74
2021/10/20 23:44:04;;;;;;;;;;;14.10;99.90;;;;;;8335901;28;19928;-74
2021/10/20 23:48:06;;;;;;;;;;;14.20;99.90;;;;;;8346899;28;20345;-74